KCIC

Chico Municipal Airport

Chico, California, USA
METAR KCIC 140835Z AUTO 00000KT 10SM CLR 05/03 A3015 RMK AO1
Observed Flight Rules
Dec-14 @ 08:35 UTC (14 minutes ago) Visual Flight Rules
Visibility Clouds
10 miles
  • Clear skies
Temperatures Readings
Current 5°C / 41°F
Dewpoint 3°C / 37°F
Humidity 87%
Altimeter 30.15" Hg
Pressure 1021 hPa
Elevation 73
METAR KCIC 140835Z AUTO 00000KT 10SM CLR 05/03 A3015 RMK AO1
Observed Flight Rules
Dec-14 @ 08:35 UTC
(14 minutes ago)
VFR
Clouds
  • Clear skies
Temperature Dewpoint
5°C / 41°F 3°C / 37°F
Humidity Altimeter Pressure
87% 30.15" Hg 1021 hPa